YM Wondrous — VROH9 — position and weather

sailwx.info

Track history (hours):
 
Tides and Currents Weather Stations Pressure Air Temp Water Temp Dewpoint Dewpoint Depression Visibility Wind Speed Wind Dir Waves Ship Positions

YM Wondrous

Last reported at 2018-May-23 04:53 UTC. Time now 2018-May-25 14:37 UTC.
Position N 23°32' E 119°55'.

Length 368 m; draft 12.9 m.

Type: Ship (hazmat cat D). MMSI: 477454700.

Date/timePositionNaut miles runAvg speedWind from/ knotsBaromVisibWave heightAir tempDewpointWater temp
2018-May-23 04:53N 23°32' E 119°55'3816.7
2018-May-23 02:36N 22°54' E 119°58'216.3
2018-May-23 02:28N 22°52' E 119°58'613.3
2018-May-23 02:00N 22°47' E 120°02'611.9
2018-May-23 01:30N 22°42' E 120°06'611.6
2018-May-23 01:00N 22°38' E 120°10'611.1
2018-May-23 00:30N 22°33' E 120°13'5 9.6
2018-May-23 00:00N 22°33' E 120°18'1 1.4
2018-May-22 23:14N 22°33' E 120°20'0 0.0
2018-May-22 22:56N 22°33' E 120°20'0 0.0
2018-May-22 22:26N 22°33' E 120°20'0 0.0
2018-May-22 21:56N 22°33' E 120°20'0 0.0
2018-May-22 21:26N 22°33' E 120°20'0 0.0
2018-May-22 20:56N 22°33' E 120°20'0 0.0
2018-May-22 20:26N 22°33' E 120°20'0 0.0
2018-May-22 19:56N 22°33' E 120°20'0 0.0
2018-May-22 19:26N 22°33' E 120°20'0 0.0
2018-May-22 18:56N 22°33' E 120°20'0 0.0
2018-May-22 18:26N 22°33' E 120°20'0 0.0
2018-May-22 17:50N 22°33' E 120°20'0 0.0
2018-May-22 17:26N 22°33' E 120°20'0 0.0
2018-May-22 16:56N 22°33' E 120°20'0 0.0
2018-May-22 16:26N 22°33' E 120°20'0 0.0
2018-May-22 15:56N 22°33' E 120°20'0 0.0
2018-May-22 15:26N 22°33' E 120°20'0 0.0
2018-May-22 14:50N 22°33' E 120°20'0 0.0
2018-May-22 13:06N 22°33' E 120°20'0 0.4
2018-May-22 12:58N 22°33' E 120°20'1 1.2
2018-May-22 12:27N 22°33' E 120°19'3 6.6
2018-May-22 11:58N 22°32' E 120°16'3 5.7
2018-May-22 11:30N 22°32' E 120°13'4 7.2
2018-May-22 11:00N 22°31' E 120°09'510.8
2018-May-22 10:30N 22°29' E 120°03'712.9
2018-May-22 10:00N 22°28' E 119°57'815.8
2018-May-22 09:30N 22°25' E 119°48'816.1
2018-May-22 09:00N 22°23' E 119°40'917.2
2018-May-22 08:30N 22°18' E 119°33'917.4
2018-May-22 08:00N 22°11' E 119°26'  
2018-May-18 14:54N 01°50' E 104°42'717.2
2018-May-18 14:30N 01°43' E 104°40'917.1
2018-May-18 13:59N 01°35' E 104°36'916.4
2018-May-18 13:28N 01°27' E 104°32'716.0
2018-May-18 13:00N 01°23' E 104°27'816.1
2018-May-18 12:30N 01°18' E 104°20'814.9
2018-May-18 12:00N 01°16' E 104°13'714.9
2018-May-18 11:30N 01°15' E 104°06'815.3
2018-May-18 11:00N 01°14' E 103°58'713.8
2018-May-18 10:30N 01°12' E 103°52'3 6.8
2018-May-18 10:00N 01°12' E 103°48'4 7.6
2018-May-18 09:30N 01°16' E 103°46'1 1.7
2018-May-18 09:00N 01°16' E 103°46'0 0.0
2018-May-18 08:30N 01°16' E 103°46'0 0.0
2018-May-18 07:57N 01°16' E 103°46'0 0.0
2018-May-18 07:28N 01°16' E 103°46'0 0.0
2018-May-18 06:57N 01°16' E 103°46'0 0.0
2018-May-18 06:30N 01°16' E 103°46'0 0.0
2018-May-18 05:57N 01°16' E 103°46'0 0.0
2018-May-18 05:27N 01°16' E 103°46'0 0.0
2018-May-18 04:58N 01°16' E 103°46'0 0.0
2018-May-18 04:29N 01°16' E 103°46'0 0.0
2018-May-18 03:58N 01°16' E 103°46'0 0.0
2018-May-18 03:27N 01°16' E 103°46'0 0.0
2018-May-18 02:57N 01°16' E 103°46'0 0.0
2018-May-18 02:27N 01°16' E 103°46'0 0.0
2018-May-18 01:57N 01°16' E 103°46'0 0.0
2018-May-18 01:30N 01°16' E 103°46'0 0.0
2018-May-18 01:00N 01°16' E 103°46'0 0.0
2018-May-18 00:30N 01°16' E 103°46'0 0.0
2018-May-18 00:00N 01°16' E 103°46'0 0.0
2018-May-17 23:30N 01°16' E 103°46'0 0.0
2018-May-17 23:00N 01°16' E 103°46'0 0.0
2018-May-17 22:30N 01°16' E 103°46'0 0.0
2018-May-17 21:57N 01°16' E 103°46'0 0.0
2018-May-17 21:27N 01°16' E 103°46'0 0.0
2018-May-17 20:58N 01°16' E 103°46'0 0.0
2018-May-17 20:30N 01°16' E 103°46'0 0.0
2018-May-17 19:55N 01°16' E 103°46'0 0.0
2018-May-17 19:28N 01°16' E 103°46'0 0.0
2018-May-17 18:58N 01°16' E 103°46'0 0.0
2018-May-17 18:27N 01°16' E 103°46'0 0.0
2018-May-17 17:57N 01°16' E 103°46'0 0.0
2018-May-17 17:30N 01°16' E 103°46'0 0.0
2018-May-17 17:00N 01°16' E 103°46'0 0.0
2018-May-17 16:29N 01°16' E 103°46'0 0.0
2018-May-17 15:59N 01°16' E 103°46'0 0.0
2018-May-17 15:30N 01°16' E 103°46'0 0.0
2018-May-17 14:59N 01°16' E 103°46'0 0.0
2018-May-17 14:28N 01°16' E 103°46'0 0.0
2018-May-17 13:58N 01°16' E 103°46'0 0.0
2018-May-17 13:30N 01°16' E 103°46'0 0.0
2018-May-17 13:00N 01°16' E 103°46'0 0.0
2018-May-17 12:27N 01°16' E 103°46'0 0.0
2018-May-17 11:57N 01°16' E 103°46'0 0.0
2018-May-17 11:27N 01°16' E 103°46'0 0.0
2018-May-17 10:57N 01°16' E 103°46'0 0.0
2018-May-17 10:30N 01°16' E 103°46'0 0.0
2018-May-17 09:58N 01°16' E 103°46'0 0.0
2018-May-17 09:30N 01°16' E 103°46'0 0.0
2018-May-17 08:59N 01°16' E 103°46'0 0.0
2018-May-17 08:19N 01°16' E 103°46'0 0.0
2018-May-17 07:57N 01°16' E 103°46'0 0.0
2018-May-17 07:30N 01°16' E 103°46'0 0.0
2018-May-17 06:57N 01°16' E 103°46'0 0.0
2018-May-17 06:28N 01°16' E 103°46'0 0.0
2018-May-17 06:00N 01°16' E 103°46'0 0.0
2018-May-17 05:29N 01°16' E 103°46'0 0.0
2018-May-17 04:59N 01°16' E 103°46'0 0.4
2018-May-17 04:30N 01°16' E 103°47'1 1.8
2018-May-17 04:01N 01°15' E 103°46'1 1.8
2018-May-17 03:31N 01°15' E 103°46'2 3.6
2018-May-17 03:01N 01°15' E 103°44'4 7.9
2018-May-17 02:31N 01°13' E 103°40'4 8.3
2018-May-17 02:01N 01°12' E 103°36'2 4.2
2018-May-17 01:31N 01°11' E 103°34'2 3.9
2018-May-17 01:01N 01°11' E 103°32'2 4.2
2018-May-17 00:30N 01°10' E 103°30'2 3.3
2018-May-16 23:59N 01°10' E 103°29'1 2.6
2018-May-16 23:30N 01°10' E 103°28'4 6.9
2018-May-16 23:00N 01°12' E 103°25'510.2
2018-May-16 22:30N 01°15' E 103°21'510.2
2018-May-16 21:59N 01°19' E 103°17'510.0
2018-May-16 21:30N 01°22' E 103°13'510.2
2018-May-16 20:59N 01°25' E 103°09'510.1
2018-May-16 20:30N 01°28' E 103°05'1110.2
2018-May-16 19:24N 01°34' E 102°55'  
Track history (hours):
 
Tides and Currents Weather Stations Pressure Air Temp Water Temp Dewpoint Dewpoint Depression Visibility Wind Speed Wind Dir Waves Ship Positions

YM Wondrous

Last reported at 2018-May-23 04:53 UTC. Time now 2018-May-25 14:37 UTC.
Position N 23°32' E 119°55'.

Length 368 m; draft 12.9 m.

Type: Ship (hazmat cat D). MMSI: 477454700.

Date/timePositionNaut miles runAvg speedWind from/ knotsBaromVisibWave heightAir tempDewpointWater temp
2018-May-23 04:53N 23°32' E 119°55'3816.7
2018-May-23 02:36N 22°54' E 119°58'216.3
2018-May-23 02:28N 22°52' E 119°58'613.3
2018-May-23 02:00N 22°47' E 120°02'611.9
2018-May-23 01:30N 22°42' E 120°06'611.6
2018-May-23 01:00N 22°38' E 120°10'611.1
2018-May-23 00:30N 22°33' E 120°13'5 9.6
2018-May-23 00:00N 22°33' E 120°18'1 1.4
2018-May-22 23:14N 22°33' E 120°20'0 0.0
2018-May-22 22:56N 22°33' E 120°20'0 0.0
2018-May-22 22:26N 22°33' E 120°20'0 0.0
2018-May-22 21:56N 22°33' E 120°20'0 0.0
2018-May-22 21:26N 22°33' E 120°20'0 0.0
2018-May-22 20:56N 22°33' E 120°20'0 0.0
2018-May-22 20:26N 22°33' E 120°20'0 0.0
2018-May-22 19:56N 22°33' E 120°20'0 0.0
2018-May-22 19:26N 22°33' E 120°20'0 0.0
2018-May-22 18:56N 22°33' E 120°20'0 0.0
2018-May-22 18:26N 22°33' E 120°20'0 0.0
2018-May-22 17:50N 22°33' E 120°20'0 0.0
2018-May-22 17:26N 22°33' E 120°20'0 0.0
2018-May-22 16:56N 22°33' E 120°20'0 0.0
2018-May-22 16:26N 22°33' E 120°20'0 0.0
2018-May-22 15:56N 22°33' E 120°20'0 0.0
2018-May-22 15:26N 22°33' E 120°20'0 0.0
2018-May-22 14:50N 22°33' E 120°20'0 0.0
2018-May-22 13:06N 22°33' E 120°20'0 0.4
2018-May-22 12:58N 22°33' E 120°20'1 1.2
2018-May-22 12:27N 22°33' E 120°19'3 6.6
2018-May-22 11:58N 22°32' E 120°16'3 5.7
2018-May-22 11:30N 22°32' E 120°13'4 7.2
2018-May-22 11:00N 22°31' E 120°09'510.8
2018-May-22 10:30N 22°29' E 120°03'712.9
2018-May-22 10:00N 22°28' E 119°57'815.8
2018-May-22 09:30N 22°25' E 119°48'816.1
2018-May-22 09:00N 22°23' E 119°40'917.2
2018-May-22 08:30N 22°18' E 119°33'917.4
2018-May-22 08:00N 22°11' E 119°26'  
2018-May-18 14:54N 01°50' E 104°42'717.2
2018-May-18 14:30N 01°43' E 104°40'917.1
2018-May-18 13:59N 01°35' E 104°36'916.4
2018-May-18 13:28N 01°27' E 104°32'716.0
2018-May-18 13:00N 01°23' E 104°27'816.1
2018-May-18 12:30N 01°18' E 104°20'814.9
2018-May-18 12:00N 01°16' E 104°13'714.9
2018-May-18 11:30N 01°15' E 104°06'815.3
2018-May-18 11:00N 01°14' E 103°58'713.8
2018-May-18 10:30N 01°12' E 103°52'3 6.8
2018-May-18 10:00N 01°12' E 103°48'4 7.6
2018-May-18 09:30N 01°16' E 103°46'1 1.7
2018-May-18 09:00N 01°16' E 103°46'0 0.0
2018-May-18 08:30N 01°16' E 103°46'0 0.0
2018-May-18 07:57N 01°16' E 103°46'0 0.0
2018-May-18 07:28N 01°16' E 103°46'0 0.0
2018-May-18 06:57N 01°16' E 103°46'0 0.0
2018-May-18 06:30N 01°16' E 103°46'0 0.0
2018-May-18 05:57N 01°16' E 103°46'0 0.0
2018-May-18 05:27N 01°16' E 103°46'0 0.0
2018-May-18 04:58N 01°16' E 103°46'0 0.0
2018-May-18 04:29N 01°16' E 103°46'0 0.0
2018-May-18 03:58N 01°16' E 103°46'0 0.0
2018-May-18 03:27N 01°16' E 103°46'0 0.0
2018-May-18 02:57N 01°16' E 103°46'0 0.0
2018-May-18 02:27N 01°16' E 103°46'0 0.0
2018-May-18 01:57N 01°16' E 103°46'0 0.0
2018-May-18 01:30N 01°16' E 103°46'0 0.0
2018-May-18 01:00N 01°16' E 103°46'0 0.0
2018-May-18 00:30N 01°16' E 103°46'0 0.0
2018-May-18 00:00N 01°16' E 103°46'0 0.0
2018-May-17 23:30N 01°16' E 103°46'0 0.0
2018-May-17 23:00N 01°16' E 103°46'0 0.0
2018-May-17 22:30N 01°16' E 103°46'0 0.0
2018-May-17 21:57N 01°16' E 103°46'0 0.0
2018-May-17 21:27N 01°16' E 103°46'0 0.0
2018-May-17 20:58N 01°16' E 103°46'0 0.0
2018-May-17 20:30N 01°16' E 103°46'0 0.0
2018-May-17 19:55N 01°16' E 103°46'0 0.0
2018-May-17 19:28N 01°16' E 103°46'0 0.0
2018-May-17 18:58N 01°16' E 103°46'0 0.0
2018-May-17 18:27N 01°16' E 103°46'0 0.0
2018-May-17 17:57N 01°16' E 103°46'0 0.0
2018-May-17 17:30N 01°16' E 103°46'0 0.0
2018-May-17 17:00N 01°16' E 103°46'0 0.0
2018-May-17 16:29N 01°16' E 103°46'0 0.0
2018-May-17 15:59N 01°16' E 103°46'0 0.0
2018-May-17 15:30N 01°16' E 103°46'0 0.0
2018-May-17 14:59N 01°16' E 103°46'0 0.0
2018-May-17 14:28N 01°16' E 103°46'0 0.0
2018-May-17 13:58N 01°16' E 103°46'0 0.0
2018-May-17 13:30N 01°16' E 103°46'0 0.0
2018-May-17 13:00N 01°16' E 103°46'0 0.0
2018-May-17 12:27N 01°16' E 103°46'0 0.0
2018-May-17 11:57N 01°16' E 103°46'0 0.0
2018-May-17 11:27N 01°16' E 103°46'0 0.0
2018-May-17 10:57N 01°16' E 103°46'0 0.0
2018-May-17 10:30N 01°16' E 103°46'0 0.0
2018-May-17 09:58N 01°16' E 103°46'0 0.0
2018-May-17 09:30N 01°16' E 103°46'0 0.0
2018-May-17 08:59N 01°16' E 103°46'0 0.0
2018-May-17 08:19N 01°16' E 103°46'0 0.0
2018-May-17 07:57N 01°16' E 103°46'0 0.0
2018-May-17 07:30N 01°16' E 103°46'0 0.0
2018-May-17 06:57N 01°16' E 103°46'0 0.0
2018-May-17 06:28N 01°16' E 103°46'0 0.0
2018-May-17 06:00N 01°16' E 103°46'0 0.0
2018-May-17 05:29N 01°16' E 103°46'0 0.0
2018-May-17 04:59N 01°16' E 103°46'0 0.4
2018-May-17 04:30N 01°16' E 103°47'1 1.8
2018-May-17 04:01N 01°15' E 103°46'1 1.8
2018-May-17 03:31N 01°15' E 103°46'2 3.6
2018-May-17 03:01N 01°15' E 103°44'4 7.9
2018-May-17 02:31N 01°13' E 103°40'4 8.3
2018-May-17 02:01N 01°12' E 103°36'2 4.2
2018-May-17 01:31N 01°11' E 103°34'2 3.9
2018-May-17 01:01N 01°11' E 103°32'2 4.2
2018-May-17 00:30N 01°10' E 103°30'2 3.3
2018-May-16 23:59N 01°10' E 103°29'1 2.6
2018-May-16 23:30N 01°10' E 103°28'4 6.9
2018-May-16 23:00N 01°12' E 103°25'510.2
2018-May-16 22:30N 01°15' E 103°21'510.2
2018-May-16 21:59N 01°19' E 103°17'510.0
2018-May-16 21:30N 01°22' E 103°13'510.2
2018-May-16 20:59N 01°25' E 103°09'510.1
2018-May-16 20:30N 01°28' E 103°05'1110.2
2018-May-16 19:24N 01°34' E 102°55'  

Dump ship's entire track history